Jose Maria Blanco, Argentina
Current Conditions -  °F | °C
As of 2:00 AM on Thursday 23 Oct 2014 (Local Time) from SAOC Reporting Station
Clear Clear  
Wind Chill: 22°   Ceiling: Unl
Heat Index: 22°   Visibility: 6mi
Dew Point: 11°   Wind: 7mph
Humidity: 50%   Direction: 320°NW
Pressure: 29.94"   Gusts: NA
Location:  36.45°S, 62.86°W
Report Text: SAOC 230500Z 32006KT CAVOK 22/11 Q1014
Loading
Personal Weather Stations






























Interactive Weather Map
Tropical Storm Tracking
New forecast layout! Learn more

10-Day Weather Forecast

Advertisements
Track Severe Weather on mobile